TimeEDT,TemperatureF,Dew PointF,Humidity,Sea Level PressureIn,VisibilityMPH,Wind Direction,Wind SpeedMPH,Gust SpeedMPH,PrecipitationIn,Events,Conditions,WindDirDegrees,DateUTC
12:54 AM,71.1,63.0,75,29.98,10.0,South,5.8,-,N/A,,Clear,180,2013-08-03 04:54:00
1:54 AM,71.1,63.0,75,30.00,10.0,South,6.9,-,N/A,,Mostly Cloudy,190,2013-08-03 05:54:00
2:54 AM,71.1,64.0,78,29.98,10.0,South,4.6,-,N/A,,Overcast,190,2013-08-03 06:54:00
3:54 AM,70.0,64.0,81,29.98,10.0,South,5.8,-,N/A,,Overcast,180,2013-08-03 07:54:00
4:54 AM,70.0,64.0,81,29.98,10.0,South,4.6,-,N/A,,Overcast,170,2013-08-03 08:54:00
5:54 AM,70.0,64.0,81,29.99,10.0,South,3.5,-,N/A,,Overcast,180,2013-08-03 09:54:00
6:54 AM,70.0,64.9,84,29.99,10.0,South,3.5,-,N/A,,Overcast,170,2013-08-03 10:54:00
7:54 AM,71.1,64.9,81,29.99,10.0,SSE,3.5,-,N/A,,Overcast,150,2013-08-03 11:54:00
8:54 AM,73.0,66.0,79,29.99,10.0,South,6.9,-,N/A,,Mostly Cloudy,180,2013-08-03 12:54:00
9:54 AM,77.0,66.0,69,29.99,10.0,SW,6.9,-,N/A,,Clear,230,2013-08-03 13:54:00
10:54 AM,78.1,66.9,68,29.99,10.0,SW,8.1,-,N/A,,Overcast,230,2013-08-03 14:54:00
11:54 AM,79.0,66.9,66,30.01,10.0,WSW,10.4,-,N/A,,Overcast,250,2013-08-03 15:54:00
12:54 PM,81.0,66.0,60,30.00,10.0,West,11.5,-,N/A,,Scattered Clouds,260,2013-08-03 16:54:00
1:54 PM,82.9,68.0,60,29.99,10.0,WSW,10.4,-,N/A,,Mostly Cloudy,240,2013-08-03 17:54:00
2:54 PM,84.0,69.1,61,29.99,10.0,West,10.4,-,N/A,,Mostly Cloudy,260,2013-08-03 18:54:00
3:54 PM,82.9,69.1,63,29.98,10.0,WSW,11.5,-,N/A,,Mostly Cloudy,240,2013-08-03 19:54:00
4:54 PM,82.0,70.0,67,29.97,10.0,West,9.2,-,N/A,,Mostly Cloudy,260,2013-08-03 20:54:00
5:54 PM,84.0,70.0,63,29.96,10.0,WSW,10.4,-,N/A,,Partly Cloudy,250,2013-08-03 21:54:00
6:54 PM,82.0,70.0,67,29.96,10.0,WNW,6.9,-,N/A,,Mostly Cloudy,300,2013-08-03 22:54:00
7:21 PM,75.9,68.0,76,29.99,10.0,North,11.5,-,N/A,,Mostly Cloudy,10,2013-08-03 23:21:00
7:46 PM,75.9,68.0,76,29.99,10.0,North,11.5,-,N/A,Thunderstorm,Mostly Cloudy,360,2013-08-03 23:46:00
7:54 PM,77.0,68.0,74,29.97,10.0,North,10.4,-,N/A,Thunderstorm,Overcast,10,2013-08-03 23:54:00
8:01 PM,77.0,68.0,74,29.99,10.0,NNE,8.1,-,N/A,,Mostly Cloudy,20,2013-08-04 00:01:00
8:54 PM,73.9,69.1,85,29.98,10.0,NNE,5.8,-,N/A,,Scattered Clouds,30,2013-08-04 00:54:00
9:54 PM,73.0,69.1,87,30.00,9.0,North,3.5,-,0.00,Rain,Light Rain,360,2013-08-04 01:54:00
10:54 PM,72.0,69.1,91,30.03,9.0,NW,3.5,-,0.00,,Overcast,320,2013-08-04 02:54:00
11:54 PM,71.1,68.0,90,30.03,7.0,Calm,Calm,-,N/A,,Clear,0,2013-08-04 03:54:00